sensor_id;sensor_type;location;lat;lon;timestamp;P1;durP1;ratioP1;P2;durP2;ratioP2
18170;SDS011;9210;48.358;10.902;2022-12-20T00:00:07;36.23;;;18.77;;
18170;SDS011;9210;48.358;10.902;2022-12-20T00:02:36;38.87;;;20.37;;
18170;SDS011;9210;48.358;10.902;2022-12-20T00:05:05;40.33;;;20.30;;
18170;SDS011;9210;48.358;10.902;2022-12-20T00:07:34;43.33;;;20.60;;
18170;SDS011;9210;48.358;10.902;2022-12-20T00:10:02;37.13;;;18.70;;
18170;SDS011;9210;48.358;10.902;2022-12-20T00:12:31;32.97;;;16.70;;
18170;SDS011;9210;48.358;10.902;2022-12-20T00:14:59;36.07;;;18.43;;
18170;SDS011;9210;48.358;10.902;2022-12-20T00:17:29;42.57;;;20.13;;
18170;SDS011;9210;48.358;10.902;2022-12-20T00:19:58;37.27;;;18.63;;
18170;SDS011;9210;48.358;10.902;2022-12-20T00:22:27;50.53;;;23.77;;
18170;SDS011;9210;48.358;10.902;2022-12-20T00:24:55;44.77;;;20.30;;
18170;SDS011;9210;48.358;10.902;2022-12-20T00:27:24;40.57;;;19.63;;
18170;SDS011;9210;48.358;10.902;2022-12-20T00:29:52;42.80;;;21.43;;
18170;SDS011;9210;48.358;10.902;2022-12-20T00:32:21;41.37;;;20.27;;
18170;SDS011;9210;48.358;10.902;2022-12-20T00:34:51;48.63;;;22.43;;
18170;SDS011;9210;48.358;10.902;2022-12-20T00:37:20;39.30;;;20.27;;
18170;SDS011;9210;48.358;10.902;2022-12-20T00:39:48;39.60;;;18.37;;
18170;SDS011;9210;48.358;10.902;2022-12-20T00:42:17;38.67;;;19.27;;
18170;SDS011;9210;48.358;10.902;2022-12-20T00:44:45;36.73;;;17.93;;
18170;SDS011;9210;48.358;10.902;2022-12-20T00:47:14;42.13;;;20.87;;
18170;SDS011;9210;48.358;10.902;2022-12-20T00:49:43;41.07;;;20.63;;
18170;SDS011;9210;48.358;10.902;2022-12-20T00:52:13;43.50;;;21.90;;
18170;SDS011;9210;48.358;10.902;2022-12-20T00:54:41;33.17;;;17.00;;
18170;SDS011;9210;48.358;10.902;2022-12-20T00:57:10;38.27;;;18.30;;
18170;SDS011;9210;48.358;10.902;2022-12-20T00:59:38;37.57;;;18.00;;
18170;SDS011;9210;48.358;10.902;2022-12-20T01:02:07;28.50;;;15.73;;
18170;SDS011;9210;48.358;10.902;2022-12-20T01:04:36;36.00;;;17.30;;
18170;SDS011;9210;48.358;10.902;2022-12-20T01:07:05;41.43;;;20.63;;
18170;SDS011;9210;48.358;10.902;2022-12-20T01:09:34;30.03;;;15.67;;
18170;SDS011;9210;48.358;10.902;2022-12-20T01:12:03;52.20;;;23.50;;
18170;SDS011;9210;48.358;10.902;2022-12-20T01:14:32;41.37;;;20.70;;
18170;SDS011;9210;48.358;10.902;2022-12-20T01:17:00;43.57;;;21.27;;
18170;SDS011;9210;48.358;10.902;2022-12-20T01:19:29;53.87;;;23.77;;
18170;SDS011;9210;48.358;10.902;2022-12-20T01:21:58;49.20;;;23.17;;
18170;SDS011;9210;48.358;10.902;2022-12-20T01:24:26;37.63;;;18.57;;
18170;SDS011;9210;48.358;10.902;2022-12-20T01:26:56;42.20;;;20.30;;
18170;SDS011;9210;48.358;10.902;2022-12-20T01:29:24;40.00;;;19.57;;
18170;SDS011;9210;48.358;10.902;2022-12-20T01:31:53;37.60;;;17.27;;
18170;SDS011;9210;48.358;10.902;2022-12-20T01:34:21;34.80;;;17.43;;
18170;SDS011;9210;48.358;10.902;2022-12-20T01:36:50;51.27;;;23.40;;
18170;SDS011;9210;48.358;10.902;2022-12-20T01:39:18;37.20;;;18.10;;
18170;SDS011;9210;48.358;10.902;2022-12-20T01:41:47;38.77;;;19.30;;
18170;SDS011;9210;48.358;10.902;2022-12-20T01:47:05;51.47;;;23.20;;
18170;SDS011;9210;48.358;10.902;2022-12-20T01:49:34;34.57;;;17.20;;
18170;SDS011;9210;48.358;10.902;2022-12-20T01:52:05;43.17;;;19.63;;
18170;SDS011;9210;48.358;10.902;2022-12-20T01:54:37;39.20;;;19.33;;
18170;SDS011;9210;48.358;10.902;2022-12-20T01:57:08;32.47;;;16.63;;
18170;SDS011;9210;48.358;10.902;2022-12-20T01:59:38;44.53;;;20.87;;
18170;SDS011;9210;48.358;10.902;2022-12-20T02:02:10;41.57;;;19.70;;
18170;SDS011;9210;48.358;10.902;2022-12-20T02:04:39;44.77;;;18.97;;
18170;SDS011;9210;48.358;10.902;2022-12-20T02:07:08;35.90;;;18.30;;
18170;SDS011;9210;48.358;10.902;2022-12-20T02:09:40;41.53;;;20.20;;
18170;SDS011;9210;48.358;10.902;2022-12-20T02:12:09;42.70;;;20.53;;
18170;SDS011;9210;48.358;10.902;2022-12-20T02:14:43;37.77;;;17.97;;
18170;SDS011;9210;48.358;10.902;2022-12-20T02:17:20;39.90;;;18.47;;
18170;SDS011;9210;48.358;10.902;2022-12-20T02:19:57;33.27;;;17.10;;
18170;SDS011;9210;48.358;10.902;2022-12-20T02:22:34;41.70;;;19.97;;
18170;SDS011;9210;48.358;10.902;2022-12-20T02:25:21;43.00;;;19.27;;
18170;SDS011;9210;48.358;10.902;2022-12-20T02:27:57;39.23;;;19.00;;
18170;SDS011;9210;48.358;10.902;2022-12-20T02:30:31;31.67;;;16.73;;
18170;SDS011;9210;48.358;10.902;2022-12-20T02:33:01;35.60;;;17.40;;
18170;SDS011;9210;48.358;10.902;2022-12-20T02:35:31;32.90;;;16.70;;
18170;SDS011;9210;48.358;10.902;2022-12-20T02:38:01;31.63;;;15.63;;
18170;SDS011;9210;48.358;10.902;2022-12-20T02:40:31;40.63;;;19.90;;
18170;SDS011;9210;48.358;10.902;2022-12-20T02:43:02;43.03;;;20.03;;
18170;SDS011;9210;48.358;10.902;2022-12-20T02:45:54;36.80;;;17.93;;
18170;SDS011;9210;48.358;10.902;2022-12-20T02:48:23;45.67;;;20.97;;
18170;SDS011;9210;48.358;10.902;2022-12-20T02:50:53;46.40;;;20.83;;
18170;SDS011;9210;48.358;10.902;2022-12-20T02:53:23;33.77;;;15.60;;
18170;SDS011;9210;48.358;10.902;2022-12-20T02:55:53;34.40;;;17.10;;
18170;SDS011;9210;48.358;10.902;2022-12-20T02:58:22;29.53;;;14.70;;
18170;SDS011;9210;48.358;10.902;2022-12-20T03:00:56;32.07;;;15.13;;
18170;SDS011;9210;48.358;10.902;2022-12-20T03:03:30;32.70;;;15.63;;
18170;SDS011;9210;48.358;10.902;2022-12-20T03:05:59;32.13;;;16.23;;
18170;SDS011;9210;48.358;10.902;2022-12-20T03:08:28;38.57;;;18.97;;
18170;SDS011;9210;48.358;10.902;2022-12-20T03:10:57;35.13;;;18.07;;
18170;SDS011;9210;48.358;10.902;2022-12-20T03:13:27;36.57;;;17.33;;
18170;SDS011;9210;48.358;10.902;2022-12-20T03:16:07;29.63;;;16.27;;
18170;SDS011;9210;48.358;10.902;2022-12-20T03:18:36;36.87;;;16.47;;
18170;SDS011;9210;48.358;10.902;2022-12-20T03:21:05;26.07;;;14.63;;
18170;SDS011;9210;48.358;10.902;2022-12-20T03:23:33;30.57;;;15.13;;
18170;SDS011;9210;48.358;10.902;2022-12-20T03:26:02;29.10;;;14.53;;
18170;SDS011;9210;48.358;10.902;2022-12-20T03:28:39;38.30;;;17.50;;
18170;SDS011;9210;48.358;10.902;2022-12-20T03:31:12;25.57;;;13.63;;
18170;SDS011;9210;48.358;10.902;2022-12-20T03:33:45;31.13;;;15.27;;
18170;SDS011;9210;48.358;10.902;2022-12-20T03:36:14;23.47;;;12.47;;
18170;SDS011;9210;48.358;10.902;2022-12-20T03:38:53;32.23;;;16.53;;
18170;SDS011;9210;48.358;10.902;2022-12-20T03:41:23;43.03;;;19.20;;
18170;SDS011;9210;48.358;10.902;2022-12-20T03:43:52;30.97;;;15.00;;
18170;SDS011;9210;48.358;10.902;2022-12-20T03:46:23;31.87;;;15.57;;
18170;SDS011;9210;48.358;10.902;2022-12-20T03:48:52;28.40;;;13.97;;
18170;SDS011;9210;48.358;10.902;2022-12-20T03:51:21;39.40;;;17.90;;
18170;SDS011;9210;48.358;10.902;2022-12-20T03:53:50;28.20;;;14.20;;
18170;SDS011;9210;48.358;10.902;2022-12-20T03:56:21;28.03;;;14.13;;
18170;SDS011;9210;48.358;10.902;2022-12-20T03:58:49;31.40;;;13.67;;
18170;SDS011;9210;48.358;10.902;2022-12-20T04:01:18;24.47;;;11.70;;
18170;SDS011;9210;48.358;10.902;2022-12-20T04:03:50;26.17;;;13.23;;
18170;SDS011;9210;48.358;10.902;2022-12-20T04:06:19;31.80;;;14.90;;
18170;SDS011;9210;48.358;10.902;2022-12-20T04:08:49;27.77;;;14.03;;
18170;SDS011;9210;48.358;10.902;2022-12-20T04:11:29;36.47;;;16.10;;
18170;SDS011;9210;48.358;10.902;2022-12-20T04:14:05;31.30;;;15.70;;
18170;SDS011;9210;48.358;10.902;2022-12-20T04:16:38;34.97;;;16.43;;
18170;SDS011;9210;48.358;10.902;2022-12-20T04:19:09;28.70;;;14.33;;
18170;SDS011;9210;48.358;10.902;2022-12-20T04:21:42;34.03;;;15.23;;
18170;SDS011;9210;48.358;10.902;2022-12-20T04:24:12;26.90;;;13.33;;
18170;SDS011;9210;48.358;10.902;2022-12-20T04:27:00;34.13;;;15.80;;
18170;SDS011;9210;48.358;10.902;2022-12-20T04:29:29;22.13;;;10.93;;
18170;SDS011;9210;48.358;10.902;2022-12-20T04:31:58;24.47;;;13.20;;
18170;SDS011;9210;48.358;10.902;2022-12-20T04:34:28;25.80;;;12.57;;
18170;SDS011;9210;48.358;10.902;2022-12-20T04:36:57;32.40;;;15.33;;
18170;SDS011;9210;48.358;10.902;2022-12-20T04:39:36;23.83;;;12.23;;
18170;SDS011;9210;48.358;10.902;2022-12-20T04:42:17;27.27;;;13.60;;
18170;SDS011;9210;48.358;10.902;2022-12-20T04:44:46;19.77;;;10.57;;
18170;SDS011;9210;48.358;10.902;2022-12-20T04:47:19;18.20;;;10.00;;
18170;SDS011;9210;48.358;10.902;2022-12-20T04:49:51;24.73;;;11.63;;
18170;SDS011;9210;48.358;10.902;2022-12-20T04:52:19;20.80;;;10.50;;
18170;SDS011;9210;48.358;10.902;2022-12-20T04:55:13;30.57;;;14.57;;
18170;SDS011;9210;48.358;10.902;2022-12-20T04:57:41;23.83;;;11.80;;
18170;SDS011;9210;48.358;10.902;2022-12-20T05:00:11;20.23;;;11.30;;
18170;SDS011;9210;48.358;10.902;2022-12-20T05:02:43;22.07;;;11.40;;
18170;SDS011;9210;48.358;10.902;2022-12-20T05:05:16;19.57;;;9.17;;
18170;SDS011;9210;48.358;10.902;2022-12-20T05:07:49;18.93;;;9.40;;
18170;SDS011;9210;48.358;10.902;2022-12-20T05:10:18;19.33;;;10.47;;
18170;SDS011;9210;48.358;10.902;2022-12-20T05:12:47;16.50;;;8.80;;
18170;SDS011;9210;48.358;10.902;2022-12-20T05:15:27;19.57;;;9.87;;
18170;SDS011;9210;48.358;10.902;2022-12-20T05:17:57;21.73;;;11.90;;
18170;SDS011;9210;48.358;10.902;2022-12-20T05:20:35;20.53;;;10.37;;
18170;SDS011;9210;48.358;10.902;2022-12-20T05:23:04;23.23;;;11.50;;
18170;SDS011;9210;48.358;10.902;2022-12-20T05:25:55;20.03;;;10.83;;
18170;SDS011;9210;48.358;10.902;2022-12-20T05:28:42;19.93;;;9.87;;
18170;SDS011;9210;48.358;10.902;2022-12-20T05:31:11;21.47;;;11.47;;
18170;SDS011;9210;48.358;10.902;2022-12-20T05:33:39;20.70;;;10.20;;
18170;SDS011;9210;48.358;10.902;2022-12-20T05:36:10;20.17;;;9.83;;
18170;SDS011;9210;48.358;10.902;2022-12-20T05:38:39;19.00;;;9.57;;
18170;SDS011;9210;48.358;10.902;2022-12-20T05:41:12;24.17;;;11.10;;
18170;SDS011;9210;48.358;10.902;2022-12-20T05:43:44;23.03;;;10.23;;
18170;SDS011;9210;48.358;10.902;2022-12-20T05:46:13;24.63;;;10.83;;
18170;SDS011;9210;48.358;10.902;2022-12-20T05:48:51;25.00;;;12.20;;
18170;SDS011;9210;48.358;10.902;2022-12-20T05:51:22;18.63;;;9.53;;
18170;SDS011;9210;48.358;10.902;2022-12-20T05:53:56;21.40;;;10.70;;
18170;SDS011;9210;48.358;10.902;2022-12-20T05:56:44;22.70;;;11.63;;
18170;SDS011;9210;48.358;10.902;2022-12-20T05:59:18;25.17;;;11.67;;
18170;SDS011;9210;48.358;10.902;2022-12-20T06:01:46;27.40;;;12.90;;
18170;SDS011;9210;48.358;10.902;2022-12-20T06:04:17;26.10;;;12.87;;
18170;SDS011;9210;48.358;10.902;2022-12-20T06:06:47;22.90;;;11.07;;
18170;SDS011;9210;48.358;10.902;2022-12-20T06:09:17;17.73;;;10.20;;
18170;SDS011;9210;48.358;10.902;2022-12-20T06:11:58;29.43;;;13.60;;
18170;SDS011;9210;48.358;10.902;2022-12-20T06:14:28;21.60;;;11.00;;
18170;SDS011;9210;48.358;10.902;2022-12-20T06:16:56;20.40;;;11.20;;
18170;SDS011;9210;48.358;10.902;2022-12-20T06:19:25;21.17;;;10.87;;
18170;SDS011;9210;48.358;10.902;2022-12-20T06:21:57;21.37;;;10.17;;
18170;SDS011;9210;48.358;10.902;2022-12-20T06:24:46;20.00;;;10.37;;
18170;SDS011;9210;48.358;10.902;2022-12-20T06:27:19;19.63;;;9.60;;
18170;SDS011;9210;48.358;10.902;2022-12-20T06:29:57;18.37;;;9.90;;
18170;SDS011;9210;48.358;10.902;2022-12-20T06:32:32;24.57;;;12.20;;
18170;SDS011;9210;48.358;10.902;2022-12-20T06:35:01;24.80;;;12.63;;
18170;SDS011;9210;48.358;10.902;2022-12-20T06:37:31;26.83;;;11.97;;
18170;SDS011;9210;48.358;10.902;2022-12-20T06:40:00;28.57;;;13.27;;
18170;SDS011;9210;48.358;10.902;2022-12-20T06:42:29;21.30;;;9.93;;
18170;SDS011;9210;48.358;10.902;2022-12-20T06:44:57;17.57;;;9.00;;
18170;SDS011;9210;48.358;10.902;2022-12-20T06:47:27;18.43;;;9.37;;
18170;SDS011;9210;48.358;10.902;2022-12-20T06:49:56;28.00;;;12.20;;
18170;SDS011;9210;48.358;10.902;2022-12-20T06:52:25;24.93;;;12.27;;
18170;SDS011;9210;48.358;10.902;2022-12-20T06:54:56;24.33;;;12.10;;
18170;SDS011;9210;48.358;10.902;2022-12-20T06:57:25;21.73;;;11.10;;
18170;SDS011;9210;48.358;10.902;2022-12-20T06:59:54;16.33;;;8.53;;
18170;SDS011;9210;48.358;10.902;2022-12-20T07:02:23;16.63;;;8.57;;
18170;SDS011;9210;48.358;10.902;2022-12-20T07:04:53;19.13;;;9.30;;
18170;SDS011;9210;48.358;10.902;2022-12-20T07:07:22;19.80;;;10.33;;
18170;SDS011;9210;48.358;10.902;2022-12-20T07:09:50;15.13;;;8.03;;
18170;SDS011;9210;48.358;10.902;2022-12-20T07:12:20;18.10;;;9.17;;
18170;SDS011;9210;48.358;10.902;2022-12-20T07:14:49;21.50;;;10.67;;
18170;SDS011;9210;48.358;10.902;2022-12-20T07:17:18;20.13;;;9.27;;
18170;SDS011;9210;48.358;10.902;2022-12-20T07:19:47;19.37;;;9.53;;
18170;SDS011;9210;48.358;10.902;2022-12-20T07:22:16;16.10;;;8.93;;
18170;SDS011;9210;48.358;10.902;2022-12-20T07:24:45;16.67;;;8.70;;
18170;SDS011;9210;48.358;10.902;2022-12-20T07:27:15;18.23;;;8.83;;
18170;SDS011;9210;48.358;10.902;2022-12-20T07:29:45;22.63;;;10.50;;
18170;SDS011;9210;48.358;10.902;2022-12-20T07:32:14;21.37;;;10.30;;
18170;SDS011;9210;48.358;10.902;2022-12-20T07:34:42;19.90;;;10.20;;
18170;SDS011;9210;48.358;10.902;2022-12-20T07:37:11;27.27;;;10.97;;
18170;SDS011;9210;48.358;10.902;2022-12-20T07:39:39;21.17;;;10.77;;
18170;SDS011;9210;48.358;10.902;2022-12-20T07:42:09;21.53;;;10.60;;
18170;SDS011;9210;48.358;10.902;2022-12-20T07:44:50;16.17;;;10.27;;
18170;SDS011;9210;48.358;10.902;2022-12-20T07:47:19;25.60;;;13.10;;
18170;SDS011;9210;48.358;10.902;2022-12-20T07:49:47;20.47;;;10.43;;
18170;SDS011;9210;48.358;10.902;2022-12-20T07:52:17;15.87;;;8.97;;
18170;SDS011;9210;48.358;10.902;2022-12-20T07:54:46;19.40;;;9.07;;
18170;SDS011;9210;48.358;10.902;2022-12-20T07:57:18;20.03;;;9.60;;
18170;SDS011;9210;48.358;10.902;2022-12-20T07:59:50;14.83;;;7.93;;
18170;SDS011;9210;48.358;10.902;2022-12-20T08:02:20;16.43;;;8.10;;
18170;SDS011;9210;48.358;10.902;2022-12-20T08:04:51;21.13;;;9.60;;
18170;SDS011;9210;48.358;10.902;2022-12-20T08:07:20;18.37;;;8.73;;
18170;SDS011;9210;48.358;10.902;2022-12-20T08:09:48;17.73;;;9.13;;
18170;SDS011;9210;48.358;10.902;2022-12-20T08:12:19;20.50;;;9.63;;
18170;SDS011;9210;48.358;10.902;2022-12-20T08:14:50;19.77;;;9.10;;
18170;SDS011;9210;48.358;10.902;2022-12-20T08:17:21;17.37;;;8.07;;
18170;SDS011;9210;48.358;10.902;2022-12-20T08:19:50;14.73;;;7.07;;
18170;SDS011;9210;48.358;10.902;2022-12-20T08:22:19;12.77;;;7.20;;
18170;SDS011;9210;48.358;10.902;2022-12-20T08:24:48;24.60;;;8.27;;
18170;SDS011;9210;48.358;10.902;2022-12-20T08:27:17;62.00;;;13.23;;
18170;SDS011;9210;48.358;10.902;2022-12-20T08:29:45;69.50;;;13.83;;
18170;SDS011;9210;48.358;10.902;2022-12-20T08:32:16;29.73;;;9.60;;
18170;SDS011;9210;48.358;10.902;2022-12-20T08:34:45;25.43;;;9.50;;
18170;SDS011;9210;48.358;10.902;2022-12-20T08:37:14;27.10;;;9.57;;
18170;SDS011;9210;48.358;10.902;2022-12-20T08:39:43;22.27;;;9.93;;
18170;SDS011;9210;48.358;10.902;2022-12-20T08:42:12;17.20;;;9.70;;
18170;SDS011;9210;48.358;10.902;2022-12-20T08:44:40;15.37;;;9.20;;
18170;SDS011;9210;48.358;10.902;2022-12-20T08:47:09;18.63;;;9.57;;
18170;SDS011;9210;48.358;10.902;2022-12-20T08:49:39;22.37;;;11.77;;
18170;SDS011;9210;48.358;10.902;2022-12-20T08:52:13;18.23;;;10.43;;
18170;SDS011;9210;48.358;10.902;2022-12-20T08:54:41;19.23;;;10.13;;
18170;SDS011;9210;48.358;10.902;2022-12-20T08:57:10;23.73;;;11.40;;
18170;SDS011;9210;48.358;10.902;2022-12-20T08:59:39;24.20;;;11.37;;
18170;SDS011;9210;48.358;10.902;2022-12-20T09:02:07;26.53;;;13.17;;
18170;SDS011;9210;48.358;10.902;2022-12-20T09:04:36;26.53;;;14.10;;
18170;SDS011;9210;48.358;10.902;2022-12-20T09:07:06;27.87;;;14.43;;
18170;SDS011;9210;48.358;10.902;2022-12-20T09:09:35;29.63;;;15.20;;
18170;SDS011;9210;48.358;10.902;2022-12-20T09:12:04;32.13;;;15.57;;
18170;SDS011;9210;48.358;10.902;2022-12-20T09:14:33;34.00;;;16.20;;
18170;SDS011;9210;48.358;10.902;2022-12-20T09:17:01;27.73;;;13.97;;
18170;SDS011;9210;48.358;10.902;2022-12-20T09:19:30;27.43;;;13.50;;
18170;SDS011;9210;48.358;10.902;2022-12-20T09:21:58;30.77;;;13.97;;
18170;SDS011;9210;48.358;10.902;2022-12-20T09:24:28;26.13;;;13.27;;
18170;SDS011;9210;48.358;10.902;2022-12-20T09:26:57;29.37;;;14.47;;
18170;SDS011;9210;48.358;10.902;2022-12-20T09:29:25;23.10;;;12.57;;
18170;SDS011;9210;48.358;10.902;2022-12-20T09:32:01;18.63;;;11.00;;
18170;SDS011;9210;48.358;10.902;2022-12-20T09:34:29;20.93;;;10.30;;
18170;SDS011;9210;48.358;10.902;2022-12-20T09:36:58;25.47;;;11.53;;
18170;SDS011;9210;48.358;10.902;2022-12-20T09:39:26;22.47;;;11.10;;
18170;SDS011;9210;48.358;10.902;2022-12-20T09:41:56;23.13;;;11.40;;
18170;SDS011;9210;48.358;10.902;2022-12-20T09:44:26;21.10;;;11.33;;
18170;SDS011;9210;48.358;10.902;2022-12-20T09:46:57;24.83;;;12.77;;
18170;SDS011;9210;48.358;10.902;2022-12-20T09:49:38;27.53;;;12.97;;
18170;SDS011;9210;48.358;10.902;2022-12-20T09:52:17;20.40;;;11.23;;
18170;SDS011;9210;48.358;10.902;2022-12-20T09:54:49;28.37;;;14.13;;
18170;SDS011;9210;48.358;10.902;2022-12-20T09:57:22;28.40;;;14.17;;
18170;SDS011;9210;48.358;10.902;2022-12-20T09:59:53;31.27;;;17.60;;
18170;SDS011;9210;48.358;10.902;2022-12-20T10:02:23;35.80;;;18.80;;
18170;SDS011;9210;48.358;10.902;2022-12-20T10:05:12;35.57;;;18.40;;
18170;SDS011;9210;48.358;10.902;2022-12-20T10:07:45;27.43;;;14.97;;
18170;SDS011;9210;48.358;10.902;2022-12-20T10:10:29;28.80;;;15.57;;
18170;SDS011;9210;48.358;10.902;2022-12-20T10:13:09;37.00;;;15.83;;
18170;SDS011;9210;48.358;10.902;2022-12-20T10:15:39;27.87;;;14.13;;
18170;SDS011;9210;48.358;10.902;2022-12-20T10:18:16;24.87;;;12.93;;
18170;SDS011;9210;48.358;10.902;2022-12-20T10:20:50;22.70;;;11.73;;
18170;SDS011;9210;48.358;10.902;2022-12-20T10:23:24;21.77;;;11.93;;
18170;SDS011;9210;48.358;10.902;2022-12-20T10:25:59;19.03;;;10.80;;
18170;SDS011;9210;48.358;10.902;2022-12-20T10:28:30;20.10;;;11.10;;
18170;SDS011;9210;48.358;10.902;2022-12-20T10:31:00;22.07;;;11.27;;
18170;SDS011;9210;48.358;10.902;2022-12-20T10:33:30;24.37;;;12.40;;
18170;SDS011;9210;48.358;10.902;2022-12-20T10:38:42;22.37;;;11.23;;
18170;SDS011;9210;48.358;10.902;2022-12-20T10:41:13;20.93;;;11.87;;
18170;SDS011;9210;48.358;10.902;2022-12-20T10:43:50;29.90;;;13.77;;
18170;SDS011;9210;48.358;10.902;2022-12-20T10:46:19;24.23;;;13.37;;
18170;SDS011;9210;48.358;10.902;2022-12-20T10:48:48;22.10;;;12.63;;
18170;SDS011;9210;48.358;10.902;2022-12-20T10:51:18;27.47;;;14.00;;
18170;SDS011;9210;48.358;10.902;2022-12-20T10:53:55;21.73;;;13.10;;
18170;SDS011;9210;48.358;10.902;2022-12-20T10:56:24;30.53;;;14.77;;
18170;SDS011;9210;48.358;10.902;2022-12-20T10:58:56;29.53;;;15.83;;
18170;SDS011;9210;48.358;10.902;2022-12-20T11:01:28;29.57;;;14.17;;
18170;SDS011;9210;48.358;10.902;2022-12-20T11:03:59;31.10;;;13.67;;
18170;SDS011;9210;48.358;10.902;2022-12-20T11:06:29;31.70;;;14.73;;
18170;SDS011;9210;48.358;10.902;2022-12-20T11:12:00;25.40;;;13.60;;
18170;SDS011;9210;48.358;10.902;2022-12-20T11:14:31;30.17;;;14.83;;
18170;SDS011;9210;48.358;10.902;2022-12-20T11:17:06;26.07;;;12.67;;
18170;SDS011;9210;48.358;10.902;2022-12-20T11:19:49;26.17;;;13.50;;
18170;SDS011;9210;48.358;10.902;2022-12-20T11:22:24;28.93;;;14.57;;
18170;SDS011;9210;48.358;10.902;2022-12-20T11:25:00;29.90;;;14.50;;
18170;SDS011;9210;48.358;10.902;2022-12-20T11:27:31;26.13;;;14.30;;
18170;SDS011;9210;48.358;10.902;2022-12-20T11:30:11;29.97;;;14.87;;
18170;SDS011;9210;48.358;10.902;2022-12-20T11:32:45;30.43;;;14.93;;
18170;SDS011;9210;48.358;10.902;2022-12-20T11:35:18;23.90;;;12.80;;
18170;SDS011;9210;48.358;10.902;2022-12-20T11:37:52;23.17;;;11.17;;
18170;SDS011;9210;48.358;10.902;2022-12-20T11:40:26;22.30;;;11.60;;
18170;SDS011;9210;48.358;10.902;2022-12-20T11:43:16;23.17;;;12.07;;
18170;SDS011;9210;48.358;10.902;2022-12-20T11:45:52;26.07;;;14.03;;
18170;SDS011;9210;48.358;10.902;2022-12-20T11:48:32;26.27;;;14.13;;
18170;SDS011;9210;48.358;10.902;2022-12-20T11:51:08;18.93;;;11.50;;
18170;SDS011;9210;48.358;10.902;2022-12-20T11:53:49;21.63;;;11.43;;
18170;SDS011;9210;48.358;10.902;2022-12-20T11:56:22;23.10;;;11.70;;
18170;SDS011;9210;48.358;10.902;2022-12-20T11:58:54;20.17;;;11.10;;
18170;SDS011;9210;48.358;10.902;2022-12-20T12:01:28;20.90;;;11.03;;
18170;SDS011;9210;48.358;10.902;2022-12-20T12:04:02;19.30;;;11.00;;
18170;SDS011;9210;48.358;10.902;2022-12-20T12:06:32;18.77;;;10.67;;
18170;SDS011;9210;48.358;10.902;2022-12-20T12:09:05;25.37;;;12.47;;
18170;SDS011;9210;48.358;10.902;2022-12-20T12:11:36;22.70;;;10.80;;
18170;SDS011;9210;48.358;10.902;2022-12-20T12:14:32;21.90;;;11.97;;
18170;SDS011;9210;48.358;10.902;2022-12-20T12:17:05;19.10;;;10.90;;
18170;SDS011;9210;48.358;10.902;2022-12-20T12:19:35;17.17;;;9.90;;
18170;SDS011;9210;48.358;10.902;2022-12-20T12:22:05;16.40;;;8.77;;
18170;SDS011;9210;48.358;10.902;2022-12-20T12:24:37;18.57;;;9.57;;
18170;SDS011;9210;48.358;10.902;2022-12-20T12:27:09;17.20;;;9.37;;
18170;SDS011;9210;48.358;10.902;2022-12-20T12:29:41;17.43;;;9.23;;
18170;SDS011;9210;48.358;10.902;2022-12-20T12:32:15;17.17;;;9.90;;
18170;SDS011;9210;48.358;10.902;2022-12-20T12:34:47;14.83;;;9.43;;
18170;SDS011;9210;48.358;10.902;2022-12-20T12:37:27;16.00;;;9.47;;
18170;SDS011;9210;48.358;10.902;2022-12-20T12:42:50;20.80;;;10.97;;
18170;SDS011;9210;48.358;10.902;2022-12-20T12:45:24;18.13;;;9.80;;
18170;SDS011;9210;48.358;10.902;2022-12-20T12:47:57;15.97;;;8.83;;
18170;SDS011;9210;48.358;10.902;2022-12-20T12:50:28;18.73;;;9.57;;
18170;SDS011;9210;48.358;10.902;2022-12-20T12:52:57;17.47;;;9.10;;
18170;SDS011;9210;48.358;10.902;2022-12-20T12:55:35;21.67;;;10.60;;
18170;SDS011;9210;48.358;10.902;2022-12-20T12:58:14;16.27;;;9.50;;
18170;SDS011;9210;48.358;10.902;2022-12-20T13:00:57;19.53;;;9.87;;
18170;SDS011;9210;48.358;10.902;2022-12-20T13:03:44;22.53;;;10.83;;
18170;SDS011;9210;48.358;10.902;2022-12-20T13:09:17;18.53;;;10.10;;
18170;SDS011;9210;48.358;10.902;2022-12-20T13:11:46;20.30;;;10.13;;
18170;SDS011;9210;48.358;10.902;2022-12-20T13:17:44;20.57;;;9.90;;
18170;SDS011;9210;48.358;10.902;2022-12-20T13:20:19;19.70;;;10.37;;
18170;SDS011;9210;48.358;10.902;2022-12-20T13:25:37;17.90;;;9.90;;
18170;SDS011;9210;48.358;10.902;2022-12-20T13:33:38;20.23;;;10.67;;
18170;SDS011;9210;48.358;10.902;2022-12-20T13:38:56;20.27;;;10.40;;
18170;SDS011;9210;48.358;10.902;2022-12-20T13:41:27;30.50;;;13.50;;
18170;SDS011;9210;48.358;10.902;2022-12-20T13:44:07;23.43;;;11.33;;
18170;SDS011;9210;48.358;10.902;2022-12-20T13:46:39;22.87;;;10.87;;
18170;SDS011;9210;48.358;10.902;2022-12-20T13:49:11;26.87;;;13.80;;
18170;SDS011;9210;48.358;10.902;2022-12-20T13:51:41;28.10;;;13.50;;
18170;SDS011;9210;48.358;10.902;2022-12-20T13:54:14;28.73;;;13.77;;
18170;SDS011;9210;48.358;10.902;2022-12-20T13:56:52;25.20;;;13.77;;
18170;SDS011;9210;48.358;10.902;2022-12-20T13:59:21;24.03;;;11.80;;
18170;SDS011;9210;48.358;10.902;2022-12-20T14:01:52;22.47;;;11.80;;
18170;SDS011;9210;48.358;10.902;2022-12-20T14:04:21;23.67;;;12.80;;
18170;SDS011;9210;48.358;10.902;2022-12-20T14:06:54;26.80;;;13.73;;
18170;SDS011;9210;48.358;10.902;2022-12-20T14:09:30;28.17;;;11.93;;
18170;SDS011;9210;48.358;10.902;2022-12-20T14:12:04;27.93;;;13.17;;
18170;SDS011;9210;48.358;10.902;2022-12-20T14:14:36;28.80;;;14.20;;
18170;SDS011;9210;48.358;10.902;2022-12-20T14:17:14;27.63;;;12.83;;
18170;SDS011;9210;48.358;10.902;2022-12-20T14:19:44;23.70;;;12.00;;
18170;SDS011;9210;48.358;10.902;2022-12-20T14:22:12;22.60;;;12.20;;
18170;SDS011;9210;48.358;10.902;2022-12-20T14:24:42;28.43;;;12.83;;
18170;SDS011;9210;48.358;10.902;2022-12-20T14:27:12;22.30;;;12.13;;
18170;SDS011;9210;48.358;10.902;2022-12-20T14:29:41;26.43;;;11.53;;
18170;SDS011;9210;48.358;10.902;2022-12-20T14:32:16;26.23;;;13.30;;
18170;SDS011;9210;48.358;10.902;2022-12-20T14:34:45;28.40;;;14.07;;
18170;SDS011;9210;48.358;10.902;2022-12-20T14:37:17;29.03;;;14.73;;
18170;SDS011;9210;48.358;10.902;2022-12-20T14:39:57;35.03;;;17.37;;
18170;SDS011;9210;48.358;10.902;2022-12-20T14:42:26;31.37;;;12.90;;
18170;SDS011;9210;48.358;10.902;2022-12-20T14:45:14;26.20;;;13.60;;
18170;SDS011;9210;48.358;10.902;2022-12-20T14:47:53;36.77;;;17.67;;
18170;SDS011;9210;48.358;10.902;2022-12-20T14:50:24;37.57;;;17.83;;
18170;SDS011;9210;48.358;10.902;2022-12-20T14:52:54;37.00;;;17.57;;
18170;SDS011;9210;48.358;10.902;2022-12-20T14:55:26;29.93;;;14.13;;
18170;SDS011;9210;48.358;10.902;2022-12-20T14:57:57;33.73;;;16.67;;
18170;SDS011;9210;48.358;10.902;2022-12-20T15:00:26;35.17;;;16.57;;
18170;SDS011;9210;48.358;10.902;2022-12-20T15:02:58;30.53;;;14.67;;
18170;SDS011;9210;48.358;10.902;2022-12-20T15:05:40;30.37;;;15.13;;
18170;SDS011;9210;48.358;10.902;2022-12-20T15:08:13;29.60;;;15.40;;
18170;SDS011;9210;48.358;10.902;2022-12-20T15:10:46;26.23;;;13.90;;
18170;SDS011;9210;48.358;10.902;2022-12-20T15:13:16;29.00;;;13.93;;
18170;SDS011;9210;48.358;10.902;2022-12-20T15:15:45;27.63;;;13.50;;
18170;SDS011;9210;48.358;10.902;2022-12-20T15:18:15;44.40;;;18.37;;